Time;durP1;ratioP1;P1;durP2;ratioP2;P2;SDS_P1;SDS_P2;PMS_P1;PMS_P2;Temp;Humidity;BMP_temperature;BMP_pressure;BME280_temperature;BME280_humidity;BME280_pressure;Samples;Min_cycle;Max_cycle;Signal;HPM_P1;HPM_P2
2021/08/26 00:01:10;;;;;;;4.97;1.58;;;;;;;19.21;89.44;101627.63;5035727;28;20751;-60
2021/08/26 00:06:24;;;;;;;4.03;1.42;;;;;;;19.29;88.41;101618.72;5043482;28;20099;-60
2021/08/26 00:08:53;;;;;;;4.03;1.30;;;;;;;19.67;84.90;101622.03;5041075;28;20173;-59
2021/08/26 00:11:24;;;;;;;5.55;1.65;;;;;;;19.84;83.00;101617.34;5032483;28;20136;-60
2021/08/26 00:13:53;;;;;;;3.55;1.42;;;;;;;19.67;84.80;101619.38;5032591;28;20053;-60
2021/08/26 00:16:22;;;;;;;6.03;1.70;;;;;;;19.64;84.78;101616.25;5033786;28;20142;-59
2021/08/26 00:18:48;;;;;;;2.83;1.70;;;;;;;20.10;82.68;101614.13;5041737;28;20049;-61
2021/08/26 00:21:15;;;;;;;5.13;1.77;;;;;;;19.79;83.18;101616.25;5032046;28;20110;-60
2021/08/26 00:23:43;;;;;;;;;;;;;;;20.10;82.52;101613.31;5042612;28;20052;-60
2021/08/26 00:26:10;;;;;;;4.07;1.73;;;;;;;20.22;81.90;101613.63;5019926;28;19920;-61
2021/08/26 00:28:37;;;;;;;3.92;1.80;;;;;;;20.60;79.75;101608.00;5032655;28;20048;-60
2021/08/26 00:31:04;;;;;;;4.53;2.00;;;;;;;20.75;78.04;101590.09;5040609;28;20393;-60
2021/08/26 00:33:31;;;;;;;4.75;2.00;;;;;;;20.74;77.96;101588.44;5034549;28;20048;-59
2021/08/26 00:35:57;;;;;;;4.45;1.90;;;;;;;20.74;76.13;101583.13;5041296;28;20175;-60
2021/08/26 00:38:25;;;;;;;4.82;1.65;;;;;;;20.76;75.98;101594.41;5031102;28;20137;-60
2021/08/26 00:40:53;;;;;;;4.97;1.92;;;;;;;20.35;77.04;101592.44;5035032;28;20127;-60
2021/08/26 00:43:19;;;;;;;6.93;1.90;;;;;;;19.98;79.49;101593.53;5038960;28;20049;-60
2021/08/26 00:45:48;;;;;;;6.00;1.83;;;;;;;20.03;79.17;101581.31;5015509;28;20136;-59
2021/08/26 00:48:14;;;;;;;5.82;1.98;;;;;;;19.69;81.19;101580.09;5039984;28;20147;-60
2021/08/26 00:50:41;;;;;;;4.75;1.73;;;;;;;19.74;81.34;101574.25;5033720;28;20155;-60
2021/08/26 00:53:08;;;;;;;4.40;1.90;;;;;;;19.98;80.51;101573.06;5037849;28;20599;-60
2021/08/26 00:55:34;;;;;;;6.90;1.92;;;;;;;19.79;81.21;101573.69;5028094;28;20572;-60
2021/08/26 00:58:02;;;;;;;4.68;2.00;;;;;;;19.77;80.98;101570.38;5042433;28;20126;-60
2021/08/26 01:00:28;;;;;;;4.75;1.63;;;;;;;20.03;79.85;101557.34;5041814;28;20057;-59
2021/08/26 01:03:12;;;;;;;4.90;1.67;;;;;;;19.77;80.80;101557.88;5032927;28;20040;-58
2021/08/26 01:05:49;;;;;;;10.30;2.10;;;;;;;19.80;79.27;101568.16;5040078;28;20182;-60
2021/08/26 01:08:21;;;;;;;6.20;2.00;;;;;;;19.60;81.01;101573.25;5028918;28;20140;-60
2021/08/26 01:10:53;;;;;;;7.22;1.83;;;;;;;19.29;82.22;101569.00;5036542;28;20128;-59
2021/08/26 01:13:20;;;;;;;7.13;1.80;;;;;;;19.26;83.02;101561.38;5032696;28;20088;-61
2021/08/26 01:16:03;;;;;;;5.10;1.80;;;;;;;19.14;83.86;101561.03;5042518;28;20139;-60
2021/08/26 01:18:32;;;;;;;7.97;2.20;;;;;;;19.14;84.02;101550.38;5032632;28;20285;-60
2021/08/26 01:20:59;;;;;;;10.23;2.47;;;;;;;19.14;82.84;101555.72;5037560;28;20080;-60
2021/08/26 01:23:27;;;;;;;7.85;1.92;;;;;;;18.95;83.37;101543.81;5030937;28;20412;-57
2021/08/26 01:25:54;;;;;;;7.18;2.00;;;;;;;18.98;83.58;101547.94;5040205;28;20507;-60
2021/08/26 01:28:22;;;;;;;6.20;1.70;;;;;;;19.32;81.44;101552.66;5044088;28;20539;-60
2021/08/26 01:30:52;;;;;;;6.55;1.80;;;;;;;18.95;80.51;101551.78;5030953;28;20045;-59
2021/08/26 01:33:19;;;;;;;6.45;2.10;;;;;;;18.91;79.44;101563.78;5044212;28;20049;-60
2021/08/26 01:35:48;;;;;;;10.88;2.33;;;;;;;19.31;77.76;101547.53;5030727;28;20144;-58
2021/08/26 01:38:22;;;;;;;7.55;2.30;;;;;;;19.19;77.15;101552.50;5038410;28;20045;-60
2021/08/26 01:40:49;;;;;;;10.02;2.00;;;;;;;19.24;77.83;101551.94;5037001;28;20456;-58
2021/08/26 01:43:19;;;;;;;8.27;2.08;;;;;;;19.11;76.87;101550.78;5044874;28;20439;-59
2021/08/26 01:45:47;;;;;;;8.30;2.53;;;;;;;19.20;76.82;101542.69;5044950;28;20548;-60
2021/08/26 01:48:17;;;;;;;8.77;2.13;;;;;;;19.45;74.18;101543.19;5033819;28;20539;-60
2021/08/26 01:50:45;;;;;;;8.88;2.22;;;;;;;19.29;75.35;101549.56;5038701;28;20110;-60
2021/08/26 01:53:12;;;;;;;12.05;2.40;;;;;;;19.14;76.16;101546.91;5033511;28;20084;-60
2021/08/26 01:55:42;;;;;;;8.18;2.80;;;;;;;19.35;75.97;101540.81;5044068;28;20152;-60
2021/08/26 01:58:10;;;;;;;10.23;2.03;;;;;;;19.27;74.21;101539.09;5037606;28;20589;-60
2021/08/26 02:00:36;;;;;;;11.07;2.67;;;;;;;19.07;75.37;101540.66;5045077;28;20128;-60
2021/08/26 02:03:03;;;;;;;10.05;2.47;;;;;;;19.00;75.19;101545.91;5035319;28;20045;-58
2021/08/26 02:05:30;;;;;;;8.68;2.28;;;;;;;19.04;75.70;101555.16;5037020;28;20476;-60
2021/08/26 02:07:56;;;;;;;9.95;2.70;;;;;;;19.35;74.27;101549.63;5045090;28;20084;-60
2021/08/26 02:10:23;;;;;;;9.25;2.58;;;;;;;18.92;75.34;101543.34;5035302;28;20052;-59
2021/08/26 02:12:50;;;;;;;9.88;2.33;;;;;;;19.14;74.90;101550.38;5042770;28;20128;-60
2021/08/26 02:15:18;;;;;;;10.55;2.88;;;;;;;19.01;74.11;101547.56;5037839;28;20571;-59
2021/08/26 02:17:45;;;;;;;6.90;2.33;;;;;;;18.89;74.40;101549.03;5039050;28;20131;-60
2021/08/26 02:20:12;;;;;;;11.35;3.03;;;;;;;18.85;75.30;101551.22;5032239;28;20425;-60
2021/08/26 02:22:39;;;;;;;16.48;3.30;;;;;;;18.75;74.53;101554.13;5041180;28;20080;-58
2021/08/26 02:25:06;;;;;;;13.48;3.03;;;;;;;18.93;74.87;101547.66;5044743;28;20852;-60
2021/08/26 02:27:33;;;;;;;13.50;3.15;;;;;;;18.86;74.41;101544.91;5033324;28;20147;-60
2021/08/26 02:30:00;;;;;;;11.88;3.17;;;;;;;18.81;74.62;101549.13;5045011;28;20554;-59
2021/08/26 02:32:29;;;;;;;13.85;2.95;;;;;;;18.95;74.19;101546.47;5032299;28;20526;-60
2021/08/26 02:34:57;;;;;;;13.50;3.13;;;;;;;19.22;72.55;101540.66;5037861;28;20060;-59
2021/08/26 02:37:24;;;;;;;13.95;3.03;;;;;;;19.21;72.35;101539.00;5040588;28;20049;-60
2021/08/26 02:39:50;;;;;;;19.73;3.15;;;;;;;19.16;72.34;101537.72;5044460;28;20052;-60
2021/08/26 02:42:17;;;;;;;12.98;2.85;;;;;;;19.33;71.32;101545.50;5047803;28;20545;-58
2021/08/26 02:44:43;;;;;;;12.93;3.00;;;;;;;19.25;72.77;101540.28;5037961;28;20095;-59
2021/08/26 02:47:10;;;;;;;13.13;3.00;;;;;;;19.21;72.61;101542.50;5040092;28;20140;-60
2021/08/26 02:49:37;;;;;;;13.95;3.33;;;;;;;19.35;72.08;101540.81;5039208;28;20140;-60
2021/08/26 02:52:05;;;;;;;15.93;3.33;;;;;;;19.78;70.53;101542.72;5043683;28;20549;-60
2021/08/26 02:54:33;;;;;;;12.65;3.15;;;;;;;19.69;70.41;101545.50;5041011;28;20052;-59
2021/08/26 02:56:59;;;;;;;12.85;3.03;;;;;;;19.66;70.41;101540.56;5045016;28;20136;-60
2021/08/26 02:59:26;;;;;;;13.75;3.40;;;;;;;19.88;70.24;101538.75;5042397;28;20252;-60
2021/08/26 03:01:52;;;;;;;15.02;3.70;;;;;;;19.20;72.50;101538.19;5035870;28;20536;-58
2021/08/26 03:04:19;;;;;;;11.73;3.20;;;;;;;18.98;74.11;101537.31;5044794;28;20269;-59
2021/08/26 03:06:46;;;;;;;13.95;3.28;;;;;;;18.92;73.46;101541.53;5036200;28;20044;-60
2021/08/26 03:09:12;;;;;;;15.65;3.53;;;;;;;18.96;73.60;101540.13;5041961;28;20059;-62
2021/08/26 03:11:39;;;;;;;19.10;3.50;;;;;;;18.70;73.78;101543.22;5036617;28;20098;-59
2021/08/26 03:14:05;;;;;;;13.98;3.15;;;;;;;18.60;74.40;101539.19;5038654;28;20195;-60
2021/08/26 03:16:32;;;;;;;13.90;3.90;;;;;;;18.71;74.79;101544.88;5040634;28;20053;-60
2021/08/26 03:18:58;;;;;;;16.77;3.53;;;;;;;18.68;73.87;101539.94;5036900;28;20131;-60
2021/08/26 03:21:25;;;;;;;15.90;3.42;;;;;;;18.96;73.48;101534.00;5043756;28;20491;-58
2021/08/26 03:23:51;;;;;;;17.58;3.45;;;;;;;19.08;74.47;101531.69;5036516;28;20106;-60
2021/08/26 03:26:18;;;;;;;12.13;3.58;;;;;;;19.19;73.69;101539.22;5042965;28;20173;-59
2021/08/26 03:28:44;;;;;;;13.98;3.80;;;;;;;19.08;73.52;101524.53;5029763;28;20152;-60
2021/08/26 03:31:13;;;;;;;15.32;3.92;;;;;;;19.17;72.25;101530.59;5040097;28;20408;-60
2021/08/26 03:33:40;;;;;;;13.32;3.30;;;;;;;18.82;75.77;101521.53;5037229;28;20045;-60
2021/08/26 03:36:06;;;;;;;15.32;3.22;;;;;;;18.99;75.14;101517.66;5042342;28;20076;-59
2021/08/26 03:38:33;;;;;;;16.30;3.83;;;;;;;19.25;75.11;101521.66;5042087;28;20508;-60
2021/08/26 03:40:59;;;;;;;15.75;3.42;;;;;;;19.25;73.81;101522.50;5031213;28;20205;-60
2021/08/26 03:43:26;;;;;;;19.42;4.03;;;;;;;19.27;73.64;101517.81;5038403;28;20049;-59
2021/08/26 03:45:53;;;;;;;13.85;3.63;;;;;;;18.98;75.72;101524.00;5035529;28;20156;-59
2021/08/26 03:48:19;;;;;;;18.27;4.60;;;;;;;18.61;77.09;101528.38;5042280;28;20126;-60
2021/08/26 03:50:45;;;;;;;14.07;3.80;;;;;;;18.60;78.45;101529.38;5034836;28;20110;-58
2021/08/26 03:53:12;;;;;;;14.25;3.35;;;;;;;18.33;79.21;101525.50;5041494;28;20590;-60
2021/08/26 03:55:39;;;;;;;17.77;4.00;;;;;;;18.10;80.44;101526.34;5038555;28;20140;-60
2021/08/26 03:58:05;;;;;;;14.88;3.90;;;;;;;18.13;79.93;101522.50;5030871;28;20053;-58
2021/08/26 04:00:32;;;;;;;15.93;4.13;;;;;;;18.07;81.14;101520.56;5040259;28;20053;-60
2021/08/26 04:02:58;;;;;;;17.75;3.95;;;;;;;18.12;80.54;101510.25;5035132;28;20071;-60
2021/08/26 04:05:25;;;;;;;19.38;4.55;;;;;;;18.25;79.81;101521.09;5042546;28;20048;-60
2021/08/26 04:07:51;;;;;;;14.32;3.72;;;;;;;18.29;79.81;101521.56;5035198;28;20139;-60
2021/08/26 04:10:18;;;;;;;17.67;4.57;;;;;;;18.13;78.99;101523.34;5035313;28;20424;-60
2021/08/26 04:12:45;;;;;;;18.38;4.40;;;;;;;18.10;79.13;101518.41;5039750;28;20080;-59
2021/08/26 04:15:11;;;;;;;15.75;3.72;;;;;;;18.12;80.29;101518.22;5033887;28;20115;-60
2021/08/26 04:17:38;;;;;;;20.55;4.13;;;;;;;17.98;79.86;101520.66;5040940;28;20061;-60
2021/08/26 04:20:05;;;;;;;16.88;3.92;;;;;;;17.84;80.66;101520.59;5035491;28;20136;-60
2021/08/26 04:22:31;;;;;;;13.05;3.30;;;;;;;17.70;81.02;101516.84;5041301;28;20136;-60
2021/08/26 04:24:58;;;;;;;15.27;3.63;;;;;;;17.65;80.61;101525.34;5035538;28;20181;-60
2021/08/26 04:27:24;;;;;;;13.88;4.05;;;;;;;17.69;80.49;101513.38;5041156;28;20089;-60
2021/08/26 04:29:51;;;;;;;14.85;3.60;;;;;;;17.68;79.29;101514.38;5043563;28;20136;-60
2021/08/26 04:32:17;;;;;;;16.95;3.67;;;;;;;17.73;78.59;101514.66;5033888;28;20053;-60
2021/08/26 04:34:44;;;;;;;12.10;2.95;;;;;;;17.71;78.89;101507.88;5036702;28;20143;-60
2021/08/26 04:37:10;;;;;;;17.85;3.33;;;;;;;17.82;78.70;101498.69;5029926;28;20049;-60
2021/08/26 04:39:37;;;;;;;17.98;4.03;;;;;;;17.62;79.06;101507.13;5041581;28;20445;-60
2021/08/26 04:42:03;;;;;;;13.80;3.30;;;;;;;17.54;78.93;101504.50;5034529;28;20088;-60
2021/08/26 04:44:30;;;;;;;21.50;4.13;;;;;;;17.59;78.35;101497.69;5041241;28;20644;-60
2021/08/26 04:46:56;;;;;;;12.65;2.95;;;;;;;17.45;79.17;101505.59;5044457;28;20484;-60
2021/08/26 04:49:23;;;;;;;13.35;3.08;;;;;;;17.36;79.85;101505.59;5031585;28;20091;-59
2021/08/26 04:51:49;;;;;;;12.55;2.80;;;;;;;17.32;80.13;101503.50;5043385;28;20107;-60
2021/08/26 04:54:18;;;;;;;16.90;3.25;;;;;;;17.32;80.12;101499.00;5035117;28;20682;-60
2021/08/26 04:56:44;;;;;;;;;;;;;;;17.49;79.54;101494.44;5041602;28;20532;-60
2021/08/26 04:59:10;;;;;;;13.30;3.05;;;;;;;17.20;80.75;101497.75;5034165;28;20016;-60
2021/08/26 05:01:37;;;;;;;15.07;3.35;;;;;;;16.93;81.39;101489.25;5017179;28;20132;-60
2021/08/26 05:04:04;;;;;;;19.58;3.13;;;;;;;16.97;82.44;101498.53;5037112;28;20056;-58
2021/08/26 05:06:31;;;;;;;13.82;3.10;;;;;;;17.22;80.79;101493.09;5032003;28;20136;-62
2021/08/26 05:08:58;;;;;;;15.35;3.15;;;;;;;17.38;80.10;101492.19;5040839;28;20144;-61
2021/08/26 05:11:24;;;;;;;14.80;2.90;;;;;;;17.38;79.81;101485.03;5034553;28;20097;-61
2021/08/26 05:13:51;;;;;;;19.88;3.95;;;;;;;17.31;80.11;101492.06;5040117;28;20045;-62
2021/08/26 05:16:17;;;;;;;12.98;3.30;;;;;;;17.51;79.87;101483.66;5026616;28;20080;-62
2021/08/26 05:18:44;;;;;;;15.68;2.97;;;;;;;17.52;80.10;101493.25;5039360;28;20048;-60
2021/08/26 05:21:11;;;;;;;18.52;3.80;;;;;;;17.68;78.93;101492.31;5042501;28;20099;-60
2021/08/26 05:23:37;;;;;;;16.23;3.10;;;;;;;17.75;78.67;101490.63;5032849;28;20743;-60
2021/08/26 05:26:04;;;;;;;17.88;3.20;;;;;;;17.79;78.64;101497.22;5040217;28;20574;-62
2021/08/26 05:28:30;;;;;;;17.65;3.72;;;;;;;17.77;79.05;101496.56;5032555;28;20072;-61
2021/08/26 05:30:57;;;;;;;17.30;3.80;;;;;;;17.81;78.94;101505.00;5039231;28;20540;-62
2021/08/26 05:33:23;;;;;;;15.90;3.40;;;;;;;17.84;78.23;101500.19;5034264;28;20087;-60
2021/08/26 05:35:50;;;;;;;20.55;3.92;;;;;;;18.11;77.10;101506.78;5040409;28;20111;-62
2021/08/26 05:38:16;;;;;;;15.98;3.13;;;;;;;17.99;77.18;101502.88;5042616;28;20075;-62
2021/08/26 05:40:43;;;;;;;14.15;2.97;;;;;;;17.84;77.08;101496.69;5031360;28;20065;-61
2021/08/26 05:43:09;;;;;;;15.07;3.25;;;;;;;17.89;77.54;101495.16;5037171;28;20069;-62
2021/08/26 05:45:36;;;;;;;16.40;3.53;;;;;;;17.87;77.72;101497.19;5032438;28;20124;-60
2021/08/26 05:48:02;;;;;;;11.52;3.22;;;;;;;17.99;76.41;101508.19;5043354;28;20052;-62
2021/08/26 05:50:29;;;;;;;14.82;3.38;;;;;;;18.26;75.36;101498.84;5038233;28;20144;-62
2021/08/26 05:52:55;;;;;;;15.35;2.85;;;;;;;18.07;75.27;101502.84;5042699;28;20527;-62
2021/08/26 05:55:22;;;;;;;11.25;3.45;;;;;;;18.13;75.81;101499.47;5041337;28;20465;-59
2021/08/26 05:57:48;;;;;;;13.25;2.55;;;;;;;17.91;76.43;101495.81;5034754;28;20136;-62
2021/08/26 06:00:15;;;;;;;14.15;3.30;;;;;;;17.22;79.77;101500.22;5037494;28;20048;-60
2021/08/26 06:02:42;;;;;;;12.55;3.08;;;;;;;17.02;81.96;101500.66;5032559;28;20052;-60
2021/08/26 06:05:10;;;;;;;13.05;3.05;;;;;;;16.92;83.45;101498.22;5041292;28;20332;-62
2021/08/26 06:07:38;;;;;;;15.25;3.25;;;;;;;16.91;84.21;101507.13;5032767;28;20696;-62
2021/08/26 06:10:06;;;;;;;11.82;2.90;;;;;;;16.88;83.81;101502.19;5037048;28;20110;-62
2021/08/26 06:12:33;;;;;;;10.93;2.30;;;;;;;16.88;84.09;101496.09;5030448;28;20899;-62
2021/08/26 06:15:02;;;;;;;14.93;2.90;;;;;;;16.79;84.32;101500.53;5038390;28;20418;-62
2021/08/26 06:17:28;;;;;;;;;;;;;;;16.83;83.96;101501.06;5043651;28;20126;-60
2021/08/26 06:19:55;;;;;;;11.85;2.40;;;;;;;16.80;85.32;101502.22;5035344;28;20378;-61
2021/08/26 06:22:21;;;;;;;11.63;2.45;;;;;;;16.81;84.66;101501.19;5045270;28;20085;-61
2021/08/26 06:24:48;;;;;;;16.13;2.92;;;;;;;17.00;85.09;101505.31;5036726;28;20785;-62
2021/08/26 06:27:14;;;;;;;8.82;2.40;;;;;;;16.94;86.11;101506.00;5043514;28;20467;-61
2021/08/26 06:29:41;;;;;;;10.60;2.92;;;;;;;17.32;82.23;101495.53;5040400;28;20571;-61
2021/08/26 06:32:07;;;;;;;14.15;2.45;;;;;;;17.81;79.77;101495.19;5041855;28;20133;-61
2021/08/26 06:34:34;;;;;;;11.50;2.60;;;;;;;17.78;78.61;101495.56;5044709;28;20076;-60
2021/08/26 06:37:00;;;;;;;17.70;2.90;;;;;;;17.94;78.01;101500.78;5035400;28;20143;-61
2021/08/26 06:39:28;;;;;;;15.43;3.10;;;;;;;17.89;78.96;101504.97;5035251;28;20076;-60
2021/08/26 06:41:56;;;;;;;13.10;2.65;;;;;;;18.49;75.54;101504.09;5033426;28;20516;-62
2021/08/26 06:44:22;;;;;;;11.63;2.70;;;;;;;18.37;75.29;101494.94;5043916;28;20128;-62
2021/08/26 06:46:49;;;;;;;14.93;3.47;;;;;;;17.79;78.00;101492.72;5035853;28;20168;-62
2021/08/26 06:49:15;;;;;;;14.18;3.22;;;;;;;18.51;76.41;101501.25;5041749;28;20156;-62
2021/08/26 06:51:42;;;;;;;11.00;2.60;;;;;;;18.12;76.40;101495.16;5041159;28;20084;-61
2021/08/26 06:54:08;;;;;;;15.45;2.63;;;;;;;17.81;78.46;101503.16;5031075;28;20063;-62
2021/08/26 06:56:35;;;;;;;12.32;2.83;;;;;;;17.46;79.36;101507.22;5043983;28;20132;-60
2021/08/26 06:59:01;;;;;;;12.25;2.20;;;;;;;17.38;80.32;101505.44;5036913;28;20132;-60
2021/08/26 07:01:27;;;;;;;9.52;2.42;;;;;;;17.52;81.10;101501.22;5043869;28;20160;-61
2021/08/26 07:03:54;;;;;;;16.45;2.83;;;;;;;17.27;81.03;101498.72;5037107;28;20065;-60
2021/08/26 07:06:21;;;;;;;12.98;1.90;;;;;;;17.17;81.26;101498.94;5036822;28;20498;-61
2021/08/26 07:08:47;;;;;;;11.27;2.25;;;;;;;17.09;82.88;101506.09;5039347;28;20705;-61
2021/08/26 07:11:14;;;;;;;10.25;2.22;;;;;;;18.10;79.47;101507.78;5034168;28;20080;-62
2021/08/26 07:13:40;;;;;;;15.32;2.85;;;;;;;18.46;78.25;101506.28;5041918;28;20131;-62
2021/08/26 07:16:06;;;;;;;8.15;1.85;;;;;;;18.25;78.42;101512.28;5035737;28;20053;-62
2021/08/26 07:18:33;;;;;;;9.95;1.85;;;;;;;18.55;76.67;101507.84;5043787;28;20479;-62
2021/08/26 07:20:59;;;;;;;8.63;1.95;;;;;;;18.67;75.83;101502.91;5035716;28;20163;-62
2021/08/26 07:23:32;;;;;;;6.53;1.40;;;;;;;19.12;72.15;101503.72;5036945;28;20057;-61
2021/08/26 07:25:59;;;;;;;6.95;1.77;;;;;;;19.15;71.02;101506.84;5042419;28;20140;-62
2021/08/26 07:28:26;;;;;;;10.35;1.80;;;;;;;18.51;73.11;101499.41;5034850;28;20076;-62
2021/08/26 07:30:52;;;;;;;6.03;1.65;;;;;;;18.79;70.29;101509.41;5042457;28;20136;-63
2021/08/26 07:33:19;;;;;;;8.65;2.15;;;;;;;18.56;72.10;101512.16;5033712;28;20053;-62
2021/08/26 07:35:45;;;;;;;10.82;2.60;;;;;;;18.64;73.85;101505.91;5034510;28;20368;-62
2021/08/26 07:38:12;;;;;;;9.13;1.92;;;;;;;18.76;73.11;101507.94;5037193;28;20619;-62
2021/08/26 07:40:38;;;;;;;9.85;1.73;;;;;;;18.22;74.22;101502.84;5041059;28;20456;-62
2021/08/26 07:43:05;;;;;;;7.85;2.10;;;;;;;17.98;76.56;101512.69;5045058;28;20192;-62
2021/08/26 07:45:31;;;;;;;7.85;1.73;;;;;;;18.27;76.85;101510.28;5033676;28;20075;-61
2021/08/26 07:47:58;;;;;;;9.48;2.40;;;;;;;18.04;79.40;101511.16;5038410;28;20052;-61
2021/08/26 07:50:25;;;;;;;9.98;2.28;;;;;;;17.81;83.21;101507.66;5029081;28;20543;-60
2021/08/26 07:52:51;;;;;;;7.97;2.20;;;;;;;17.89;85.13;101521.72;5041967;28;20466;-61
2021/08/26 07:55:17;;;;;;;8.57;2.15;;;;;;;17.94;85.66;101510.56;5034470;28;20161;-62
2021/08/26 07:57:44;;;;;;;8.07;2.30;;;;;;;17.96;86.18;101516.53;5041742;28;20188;-61
2021/08/26 08:00:11;;;;;;;10.48;2.80;;;;;;;17.83;88.06;101513.63;5043383;28;20136;-61
2021/08/26 08:02:38;;;;;;;8.45;2.30;;;;;;;17.63;88.23;101519.38;5026965;28;20492;-61
2021/08/26 08:05:05;;;;;;;12.10;2.40;;;;;;;17.63;86.22;101524.69;5042513;28;20404;-61
2021/08/26 08:07:31;;;;;;;11.50;2.58;;;;;;;17.72;90.19;101510.38;5035141;28;20069;-60
2021/08/26 08:09:58;;;;;;;12.05;2.70;;;;;;;17.79;87.14;101503.34;5040662;28;20081;-61
2021/08/26 08:12:24;;;;;;;11.82;2.15;;;;;;;17.74;88.00;101503.06;5034212;28;20523;-62
2021/08/26 08:14:50;;;;;;;9.13;2.30;;;;;;;17.95;85.71;101499.78;5034121;28;20143;-60
2021/08/26 08:17:17;;;;;;;12.70;2.22;;;;;;;18.43;87.23;101504.81;5041466;28;20464;-61
2021/08/26 08:19:44;;;;;;;9.15;2.47;;;;;;;19.17;81.57;101496.84;5033750;28;20084;-60
2021/08/26 08:22:10;;;;;;;10.35;2.30;;;;;;;18.65;82.02;101504.94;5043413;28;20143;-60
2021/08/26 08:24:40;;;;;;;11.43;2.47;;;;;;;18.45;83.72;101500.16;5016377;28;20091;-59
2021/08/26 08:27:07;;;;;;;11.57;3.05;;;;;;;18.44;85.23;101505.63;5039650;28;20072;-60
2021/08/26 08:29:33;;;;;;;8.50;2.45;;;;;;;18.70;83.08;101500.72;5028826;28;20135;-60
2021/08/26 08:32:00;;;;;;;11.43;2.70;;;;;;;18.87;80.73;101493.38;5040774;28;20160;-61
2021/08/26 08:34:26;;;;;;;8.35;2.40;;;;;;;19.28;77.73;101498.19;5022133;28;20049;-60
2021/08/26 08:36:53;;;;;;;9.38;2.42;;;;;;;19.05;79.19;101497.50;5038082;28;20489;-59
2021/08/26 08:39:21;;;;;;;9.00;1.95;;;;;;;18.81;79.45;101494.13;5041324;28;20548;-60
2021/08/26 08:41:47;;;;;;;8.25;2.45;;;;;;;18.76;80.52;101501.81;5028070;28;21077;-60
2021/08/26 08:44:14;;;;;;;10.40;2.60;;;;;;;19.19;77.11;101496.66;5035287;28;20055;-60
2021/08/26 08:46:47;;;;;;;8.70;2.17;;;;;;;20.12;73.55;101496.75;5034130;28;20140;-61
2021/08/26 08:49:14;;;;;;;7.55;1.73;;;;;;;20.44;73.44;101499.84;5043014;28;20139;-60
2021/08/26 08:51:40;;;;;;;13.95;2.20;;;;;;;20.41;70.87;101494.91;5020820;28;20102;-60
2021/08/26 08:54:07;;;;;;;10.20;1.75;;;;;;;19.70;73.51;101496.59;5025768;28;20160;-61
2021/08/26 08:56:33;;;;;;;7.88;1.90;;;;;;;19.61;75.47;101496.91;5040250;28;20144;-59
2021/08/26 08:59:00;;;;;;;7.45;1.60;;;;;;;20.01;70.39;101489.28;5031514;28;20167;-61
2021/08/26 09:01:27;;;;;;;6.57;1.55;;;;;;;20.28;70.59;101490.31;5039092;28;20528;-61
2021/08/26 09:03:54;;;;;;;5.10;1.55;;;;;;;20.29;69.92;101483.97;5033394;28;20076;-61
2021/08/26 09:06:20;;;;;;;4.82;1.65;;;;;;;19.97;70.63;101494.16;5041215;28;20080;-60
2021/08/26 09:09:01;;;;;;;5.80;1.90;;;;;;;20.11;71.31;101495.09;5032947;28;20095;-58
2021/08/26 09:11:28;;;;;;;10.95;1.92;;;;;;;20.59;70.71;101492.59;5032967;28;20143;-61
2021/08/26 09:13:55;;;;;;;9.73;2.08;;;;;;;20.89;71.02;101489.66;5041709;28;20079;-58
2021/08/26 09:16:36;;;;;;;4.80;1.58;;;;;;;20.32;70.72;101484.38;5033160;28;20590;-60
2021/08/26 09:19:33;;;;;;;5.28;1.75;;;;;;;20.45;73.01;101488.19;5039353;28;20336;-60
2021/08/26 09:22:06;;;;;;;6.40;2.03;;;;;;;20.82;70.67;101492.31;5034081;28;20077;-60
2021/08/26 09:24:48;;;;;;;5.95;1.85;;;;;;;20.67;72.52;101484.44;5037395;28;20091;-60
2021/08/26 09:27:38;;;;;;;8.27;2.28;;;;;;;20.42;71.51;101494.69;5029285;28;20449;-59
2021/08/26 09:30:05;;;;;;;6.72;2.10;;;;;;;20.03;72.53;101492.59;5041310;28;20059;-61
2021/08/26 09:32:43;;;;;;;9.88;2.60;;;;;;;19.96;73.26;101489.88;5031841;28;20056;-60
2021/08/26 09:35:15;;;;;;;8.93;2.67;;;;;;;19.84;77.75;101480.78;5041376;28;20140;-61
2021/08/26 09:37:55;;;;;;;6.47;2.50;;;;;;;20.27;72.92;101483.34;5028830;28;20076;-61
2021/08/26 09:40:24;;;;;;;9.55;2.50;;;;;;;20.28;71.76;101484.97;5033839;28;20235;-61
2021/08/26 09:43:09;;;;;;;7.38;2.30;;;;;;;20.45;71.10;101477.53;5033953;28;20071;-61
2021/08/26 09:45:38;;;;;;;9.02;2.28;;;;;;;20.14;71.75;101476.91;5039925;28;20479;-61
2021/08/26 09:48:07;;;;;;;8.07;2.33;;;;;;;20.05;72.72;101483.41;5040017;28;20076;-61
2021/08/26 09:50:36;;;;;;;9.02;3.10;;;;;;;19.61;74.33;101479.09;5034718;28;20513;-61
2021/08/26 09:53:03;;;;;;;9.32;2.45;;;;;;;19.49;74.98;101480.59;5031847;28;20517;-61
2021/08/26 09:55:56;;;;;;;9.80;2.33;;;;;;;19.56;76.34;101489.47;5035795;28;20080;-60
2021/08/26 09:58:25;;;;;;;10.45;2.08;;;;;;;19.65;75.62;101491.00;5040872;28;20056;-60
2021/08/26 10:01:17;;;;;;;6.85;2.13;;;;;;;19.66;75.75;101497.13;5038355;28;20045;-61
2021/08/26 10:03:44;;;;;;;10.55;2.78;;;;;;;20.04;74.26;101500.38;5043331;28;20087;-61
2021/08/26 10:06:12;;;;;;;12.63;2.63;;;;;;;19.78;76.40;101498.31;5031531;28;20148;-61
2021/08/26 10:08:41;;;;;;;11.38;2.95;;;;;;;20.09;76.30;101500.63;5038977;28;20235;-60
2021/08/26 10:11:10;;;;;;;10.07;2.40;;;;;;;19.85;75.79;101501.03;5033876;28;20428;-59
2021/08/26 10:13:37;;;;;;;9.82;2.38;;;;;;;20.14;73.58;101495.53;5044421;28;20045;-60
2021/08/26 10:16:05;;;;;;;8.02;2.55;;;;;;;20.13;73.09;101491.25;5043404;28;20262;-60
2021/08/26 10:18:34;;;;;;;7.72;2.47;;;;;;;20.46;72.37;101503.13;5037142;28;20066;-60
2021/08/26 10:21:00;;;;;;;10.85;2.40;;;;;;;19.99;75.18;101496.66;5035556;28;20237;-60
2021/08/26 10:23:28;;;;;;;10.10;2.40;;;;;;;20.34;72.63;101493.00;5031875;28;20045;-60
2021/08/26 10:25:57;;;;;;;;;;;;;;;21.13;68.37;101491.81;5045980;28;20135;-61
2021/08/26 10:28:25;;;;;;;13.38;3.28;;;;;;;20.66;69.37;101503.28;5035817;28;20459;-61
2021/08/26 10:30:56;;;;;;;7.47;2.00;;;;;;;21.14;69.25;101504.13;5043539;28;20060;-62
2021/08/26 10:33:27;;;;;;;7.82;3.10;;;;;;;21.04;68.55;101505.53;5039919;28;20375;-61
2021/08/26 10:35:54;;;;;;;9.70;2.42;;;;;;;20.51;69.38;101503.38;5031269;28;20139;-60
2021/08/26 10:38:25;;;;;;;8.73;2.42;;;;;;;20.86;69.13;101501.56;5044004;28;20144;-60
2021/08/26 10:40:52;;;;;;;10.57;2.42;;;;;;;20.42;69.11;101496.56;5034343;28;20164;-60
2021/08/26 10:43:39;;;;;;;10.13;2.10;;;;;;;20.48;69.36;101504.59;5046011;28;20604;-60
2021/08/26 10:46:08;;;;;;;9.80;2.33;;;;;;;20.47;68.55;101502.13;5037527;28;20132;-61
2021/08/26 10:48:35;;;;;;;7.90;2.15;;;;;;;21.02;66.72;101497.72;5040498;28;20278;-60
2021/08/26 10:51:05;;;;;;;8.43;2.00;;;;;;;21.29;67.10;101511.97;5034359;28;20492;-60
2021/08/26 10:53:34;;;;;;;10.38;2.45;;;;;;;21.31;64.96;101507.25;5025981;28;20658;-61
2021/08/26 10:56:35;;;;;;;10.00;2.08;;;;;;;21.15;64.85;101507.63;5044041;28;20098;-59
2021/08/26 10:59:02;;;;;;;11.00;2.25;;;;;;;21.26;65.85;101507.03;5011039;28;20048;-60
2021/08/26 11:01:42;;;;;;;11.63;2.60;;;;;;;21.84;63.91;101503.91;5039317;28;20132;-60
2021/08/26 11:04:27;;;;;;;9.68;2.90;;;;;;;21.51;64.20;101506.53;5031149;28;20049;-60
2021/08/26 11:06:55;;;;;;;8.40;2.30;;;;;;;21.23;65.89;101503.94;5040230;28;20136;-60
2021/08/26 11:09:24;;;;;;;12.50;2.83;;;;;;;21.52;66.12;101494.81;5035672;28;20049;-59
2021/08/26 11:11:53;;;;;;;9.73;2.95;;;;;;;21.62;65.53;101494.41;5041088;28;20523;-60
2021/08/26 11:14:19;;;;;;;12.70;3.25;;;;;;;21.81;64.34;101488.28;5035653;28;20051;-61
2021/08/26 11:16:48;;;;;;;11.85;3.00;;;;;;;22.17;62.88;101491.53;5035692;28;20295;-60
2021/08/26 11:19:15;;;;;;;18.38;3.40;;;;;;;21.77;63.26;101492.38;5032573;28;20479;-61
2021/08/26 11:21:44;;;;;;;13.90;3.30;;;;;;;21.93;63.97;101483.13;5044281;28;20592;-60
2021/08/26 11:24:14;;;;;;;8.95;2.80;;;;;;;22.03;63.48;101480.06;5041380;28;20087;-60
2021/08/26 11:26:44;;;;;;;17.50;3.30;;;;;;;22.15;65.38;101490.94;5036857;28;20564;-60
2021/08/26 11:29:17;;;;;;;12.40;3.03;;;;;;;22.11;63.29;101483.34;5037231;28;20160;-61